Time;durP1;ratioP1;P1;durP2;ratioP2;P2;SDS_P1;SDS_P2;PMS_P1;PMS_P2;Temp;Humidity;BMP_temperature;BMP_pressure;BME280_temperature;BME280_humidity;BME280_pressure;Samples;Min_cycle;Max_cycle;Signal;HPM_P1;HPM_P2
2022/09/01 00:01:42;;;;;;;29.15;16.55;;;;;;;18.80;100.00;94534.06;5061045;28;20202;-80
2022/09/01 00:04:11;;;;;;;27.92;17.45;;;;;;;18.75;100.00;94531.47;5062449;28;20205;-80
2022/09/01 00:06:39;;;;;;;23.83;17.77;;;;;;;18.71;100.00;94531.19;5062072;28;20274;-81
2022/09/01 00:09:10;;;;;;;26.77;17.17;;;;;;;18.62;100.00;94528.34;5063486;28;20205;-80
2022/09/01 00:11:37;;;;;;;27.15;17.48;;;;;;;18.55;100.00;94530.50;5063519;28;20213;-80
2022/09/01 00:17:05;;;;;;;26.48;18.27;;;;;;;18.44;100.00;94520.25;5061675;28;20213;-80
2022/09/01 00:19:32;;;;;;;31.97;18.00;;;;;;;18.38;100.00;94519.50;5062518;28;20240;-80
2022/09/01 00:21:59;;;;;;;24.13;17.43;;;;;;;18.30;100.00;94517.41;5063367;28;20254;-80
2022/09/01 00:24:29;;;;;;;26.30;18.10;;;;;;;18.30;100.00;94517.41;5063398;28;20284;-80
2022/09/01 00:26:56;;;;;;;27.77;17.63;;;;;;;18.35;100.00;94517.41;5064037;28;20271;-80
2022/09/01 00:29:24;;;;;;;23.35;16.95;;;;;;;18.22;100.00;94520.59;5063894;28;20193;-78
2022/09/01 00:31:52;;;;;;;24.60;17.13;;;;;;;18.36;100.00;94518.94;5062609;28;20220;-81
2022/09/01 00:34:20;;;;;;;23.80;16.70;;;;;;;18.46;100.00;94523.41;5062690;28;20205;-81
2022/09/01 00:36:47;;;;;;;24.20;17.10;;;;;;;18.50;100.00;94529.72;5063448;28;21718;-81
2022/09/01 00:39:14;;;;;;;21.73;17.10;;;;;;;18.49;100.00;94526.31;5063706;28;20302;-81
2022/09/01 00:41:43;;;;;;;21.47;16.87;;;;;;;18.42;100.00;94533.66;5062491;28;20913;-81
2022/09/01 00:44:14;;;;;;;30.43;17.13;;;;;;;18.37;100.00;94531.06;5061413;28;20286;-81
2022/09/01 00:46:43;;;;;;;25.07;16.30;;;;;;;18.31;100.00;94532.13;5062578;28;20213;-81
2022/09/01 00:49:13;;;;;;;23.77;15.90;;;;;;;18.28;100.00;94531.88;5064132;28;20201;-80
2022/09/01 00:51:44;;;;;;;25.30;17.97;;;;;;;18.30;100.00;94532.38;5067483;28;20213;-81
2022/09/01 00:54:15;;;;;;;26.30;17.30;;;;;;;18.27;100.00;94530.31;5067703;28;21359;-80
2022/09/01 00:56:45;;;;;;;23.27;16.47;;;;;;;18.22;100.00;94535.56;5066261;28;20209;-81
2022/09/01 00:59:12;;;;;;;24.17;16.87;;;;;;;18.22;100.00;94541.63;5065310;28;20206;-81
2022/09/01 01:01:41;;;;;;;26.47;16.63;;;;;;;18.24;100.00;94541.38;5064935;28;20212;-81
2022/09/01 01:04:13;;;;;;;25.53;16.47;;;;;;;18.21;100.00;94540.03;5064173;28;21521;-80
2022/09/01 01:06:42;;;;;;;23.57;15.93;;;;;;;18.18;100.00;94545.06;5062827;28;20259;-80
2022/09/01 01:09:09;;;;;;;21.70;15.97;;;;;;;18.14;100.00;94542.97;5063471;28;20722;-81
2022/09/01 01:11:36;;;;;;;23.30;16.33;;;;;;;18.07;100.00;94545.09;5064254;28;20205;-81
2022/09/01 01:14:10;;;;;;;26.73;16.60;;;;;;;18.10;100.00;94547.19;5064705;28;20209;-81
2022/09/01 01:16:42;;;;;;;21.27;16.07;;;;;;;18.02;100.00;94539.06;5064600;28;20972;-82
2022/09/01 01:23:00;;;;;;;25.17;16.10;;;;;;;17.90;100.00;94526.19;5065477;28;20250;-82
2022/09/01 01:24:54;;;;;;;21.97;15.63;;;;;;;17.97;100.00;94526.72;5063741;28;20213;-81
2022/09/01 01:27:21;;;;;;;21.50;15.60;;;;;;;17.94;100.00;94521.19;5067388;28;20293;-81
2022/09/01 01:29:52;;;;;;;20.17;15.03;;;;;;;17.96;100.00;94527.75;5067321;28;20197;-80
2022/09/01 01:32:19;;;;;;;22.97;15.80;;;;;;;17.96;100.00;94525.13;5067344;28;20869;-81
2022/09/01 01:34:46;;;;;;;18.00;15.57;;;;;;;17.96;100.00;94529.59;5065770;28;20216;-78
2022/09/01 01:37:14;;;;;;;26.00;16.20;;;;;;;17.94;100.00;94529.09;5066119;28;20691;-79
2022/09/01 01:39:43;;;;;;;22.33;16.20;;;;;;;17.90;100.00;94531.44;5065279;28;20233;-80
2022/09/01 01:42:11;;;;;;;22.90;16.07;;;;;;;17.90;100.00;94535.91;5064896;28;21491;-80
2022/09/01 01:44:38;;;;;;;21.37;15.93;;;;;;;17.84;100.00;94537.75;5064298;28;20216;-81
2022/09/01 01:47:08;;;;;;;25.17;16.83;;;;;;;17.86;100.00;94545.41;5064732;28;20660;-81
2022/09/01 01:49:36;;;;;;;24.23;15.57;;;;;;;17.82;100.00;94545.13;5064025;28;20202;-80
2022/09/01 01:52:03;;;;;;;22.47;16.47;;;;;;;17.82;100.00;94546.97;5063360;28;20284;-80
2022/09/01 01:54:31;;;;;;;22.43;15.93;;;;;;;17.79;100.00;94555.41;5063454;28;20231;-81
2022/09/01 01:56:58;;;;;;;22.93;16.47;;;;;;;17.79;100.00;94552.75;5064624;28;20205;-80
2022/09/01 01:59:28;;;;;;;25.47;16.37;;;;;;;17.77;100.00;94560.94;5065213;28;20217;-80
2022/09/01 02:01:55;;;;;;;24.60;16.93;;;;;;;17.71;100.00;94553.31;5066002;28;20682;-81
2022/09/01 02:04:23;;;;;;;25.77;16.63;;;;;;;17.67;100.00;94560.13;5067102;28;20209;-83
2022/09/01 02:06:51;;;;;;;21.63;16.13;;;;;;;17.68;100.00;94562.50;5063910;28;20209;-81
2022/09/01 02:09:22;;;;;;;30.43;16.83;;;;;;;17.69;100.00;94571.19;5066912;28;20201;-82
2022/09/01 02:11:55;;;;;;;20.90;16.63;;;;;;;17.65;100.00;94560.41;5067900;28;20229;-81
2022/09/01 02:14:23;;;;;;;25.30;15.87;;;;;;;17.68;100.00;94562.50;5068374;28;20270;-81
2022/09/01 02:16:54;;;;;;;26.80;17.00;;;;;;;17.64;100.00;94558.81;5067478;28;20229;-81
2022/09/01 02:19:21;;;;;;;21.73;16.27;;;;;;;17.65;100.00;94570.91;5067112;28;20206;-81
2022/09/01 02:21:53;;;;;;;23.23;17.20;;;;;;;17.58;100.00;94554.59;5066989;28;20228;-82
2022/09/01 02:24:20;;;;;;;23.63;16.93;;;;;;;17.66;100.00;94555.94;5064798;28;20300;-82
2022/09/01 02:26:47;;;;;;;23.33;16.87;;;;;;;17.62;100.00;94558.31;5062639;28;20243;-82
2022/09/01 02:29:19;;;;;;;23.37;17.10;;;;;;;17.57;100.00;94560.94;5062980;28;20206;-82
2022/09/01 02:31:48;;;;;;;22.53;17.07;;;;;;;17.42;100.00;94545.13;5065378;28;20250;-81
2022/09/01 02:34:17;;;;;;;24.60;16.00;;;;;;;17.49;100.00;94559.56;5065290;28;20209;-82
2022/09/01 02:36:47;;;;;;;25.73;17.03;;;;;;;17.52;100.00;94550.38;5065178;28;20209;-81
2022/09/01 02:39:14;;;;;;;29.50;16.50;;;;;;;17.44;100.00;94541.19;5065603;28;20255;-81
2022/09/01 02:41:42;;;;;;;27.80;16.53;;;;;;;17.50;100.00;94549.84;5064885;28;20229;-81
2022/09/01 02:44:11;;;;;;;23.17;17.30;;;;;;;17.48;100.00;94547.50;5063700;28;20205;-81
2022/09/01 02:46:40;;;;;;;27.40;17.07;;;;;;;17.42;100.00;94534.63;5065565;28;20318;-81
2022/09/01 02:49:14;;;;;;;25.03;16.50;;;;;;;17.41;100.00;94544.34;5066942;28;20213;-83
2022/09/01 02:51:43;;;;;;;23.37;16.87;;;;;;;17.48;100.00;94541.47;5067333;28;20239;-81
2022/09/01 02:54:14;;;;;;;31.67;17.23;;;;;;;17.46;100.00;94538.31;5066102;28;21490;-81
2022/09/01 02:56:41;;;;;;;24.60;17.47;;;;;;;17.41;100.00;94539.09;5065225;28;20201;-81
2022/09/01 02:59:11;;;;;;;24.17;17.27;;;;;;;17.41;100.00;94538.28;5063454;28;20213;-81
2022/09/01 03:01:39;;;;;;;22.13;16.90;;;;;;;17.43;100.00;94536.22;5061479;28;20235;-81
2022/09/01 03:04:08;;;;;;;24.63;17.10;;;;;;;17.32;100.00;94535.41;5063562;28;20217;-80
2022/09/01 03:06:37;;;;;;;26.17;17.07;;;;;;;17.31;100.00;94539.09;5061917;28;20296;-79
2022/09/01 03:09:08;;;;;;;26.30;18.27;;;;;;;17.32;100.00;94547.75;5064799;28;20217;-79
2022/09/01 03:11:37;;;;;;;24.63;17.93;;;;;;;17.25;100.00;94534.88;5063900;28;20582;-81
2022/09/01 03:14:06;;;;;;;26.77;17.23;;;;;;;17.25;100.00;94549.84;5064138;28;20220;-80
2022/09/01 03:16:34;;;;;;;25.00;17.33;;;;;;;17.19;100.00;94543.81;5062720;28;20259;-80
2022/09/01 03:19:02;;;;;;;28.07;17.53;;;;;;;17.16;100.00;94539.06;5063027;28;20216;-79
2022/09/01 03:21:31;;;;;;;29.63;17.90;;;;;;;17.14;100.00;94532.50;5063317;28;20258;-81
2022/09/01 03:24:00;;;;;;;30.80;17.20;;;;;;;17.17;100.00;94539.88;5064188;28;20206;-81
2022/09/01 03:26:29;;;;;;;27.67;16.67;;;;;;;17.13;100.00;94538.81;5064515;28;20201;-81
2022/09/01 03:28:56;;;;;;;26.97;17.77;;;;;;;17.10;100.00;94544.56;5064322;28;20193;-81
2022/09/01 03:31:26;;;;;;;25.20;16.97;;;;;;;17.09;100.00;94546.41;5062378;28;20206;-82
2022/09/01 03:33:55;;;;;;;29.40;18.03;;;;;;;17.09;100.00;94550.88;5062179;28;20235;-82
2022/09/01 03:36:23;;;;;;;24.43;17.97;;;;;;;17.07;100.00;94551.13;5061664;28;21500;-78
2022/09/01 03:38:52;;;;;;;24.87;17.93;;;;;;;17.05;100.00;94555.06;5058889;28;20209;-79
2022/09/01 03:41:21;;;;;;;30.83;19.50;;;;;;;17.05;100.00;94544.56;5058916;28;20290;-78
2022/09/01 03:43:50;;;;;;;27.70;19.10;;;;;;;17.00;100.00;94553.22;5062412;28;20661;-78
2022/09/01 03:46:20;;;;;;;28.13;19.13;;;;;;;16.99;100.00;94549.03;5057159;28;20208;-78
2022/09/01 03:48:50;;;;;;;30.37;19.17;;;;;;;17.06;100.00;94554.00;5051142;28;20205;-78
2022/09/01 03:51:18;;;;;;;25.03;18.60;;;;;;;17.04;100.00;94543.78;5054690;28;20235;-74
2022/09/01 03:53:46;;;;;;;32.40;18.67;;;;;;;17.03;100.00;94547.44;5050150;28;20198;-73
2022/09/01 03:56:14;;;;;;;29.67;18.93;;;;;;;17.03;100.00;94547.44;5058820;28;20207;-73
2022/09/01 03:58:45;;;;;;;25.40;17.87;;;;;;;16.99;100.00;94551.66;5060778;28;20221;-73
2022/09/01 04:01:15;;;;;;;30.43;18.47;;;;;;;17.00;100.00;94558.47;5061528;28;20236;-72
2022/09/01 04:03:44;;;;;;;29.33;17.80;;;;;;;17.01;100.00;94552.97;5062129;28;20304;-72
2022/09/01 04:06:11;;;;;;;30.17;18.13;;;;;;;16.99;100.00;94562.94;5061262;28;20302;-73
2022/09/01 04:08:38;;;;;;;28.47;18.77;;;;;;;16.98;100.00;94560.56;5060303;28;20213;-73
2022/09/01 04:11:12;;;;;;;29.13;18.50;;;;;;;16.99;100.00;94560.31;5061185;28;20213;-73
2022/09/01 04:13:41;;;;;;;27.10;18.07;;;;;;;16.93;100.00;94557.94;5062022;28;20201;-73
2022/09/01 04:19:00;;;;;;;27.37;17.87;;;;;;;16.82;100.00;94557.13;5061175;28;20208;-72
2022/09/01 04:21:29;;;;;;;30.13;18.23;;;;;;;16.56;100.00;94554.69;5046641;28;20228;-73
2022/09/01 04:23:58;;;;;;;30.87;19.20;;;;;;;16.29;100.00;94544.31;5066252;28;20850;-73
2022/09/01 04:26:28;;;;;;;29.30;19.80;;;;;;;16.05;100.00;94551.78;5066628;28;20328;-73
2022/09/01 04:28:57;;;;;;;29.37;19.77;;;;;;;16.16;100.00;94547.41;5066812;28;20205;-74
2022/09/01 04:31:25;;;;;;;24.77;19.00;;;;;;;16.10;100.00;94543.16;5066440;28;20251;-74
2022/09/01 04:33:54;;;;;;;30.93;20.77;;;;;;;16.09;100.00;94552.84;5067777;28;20220;-73
2022/09/01 04:36:24;;;;;;;31.77;20.23;;;;;;;15.96;100.00;94552.53;5064214;28;20215;-73
2022/09/01 04:38:54;;;;;;;28.83;21.37;;;;;;;15.97;100.00;94548.84;5065844;28;20308;-73
2022/09/01 04:41:24;;;;;;;36.10;22.43;;;;;;;15.97;100.00;94547.03;5066511;28;20239;-73
2022/09/01 04:43:55;;;;;;;30.50;22.83;;;;;;;15.98;100.00;94553.06;5068145;28;20205;-73
2022/09/01 04:46:24;;;;;;;45.47;26.27;;;;;;;16.10;100.00;94548.41;5069359;28;20201;-73
2022/09/01 04:48:54;;;;;;;44.83;30.70;;;;;;;16.16;100.00;94547.41;5068691;28;20212;-73
2022/09/01 04:51:22;;;;;;;42.67;29.00;;;;;;;16.21;100.00;94539.53;5066124;28;20551;-73
2022/09/01 04:53:49;;;;;;;39.47;27.00;;;;;;;16.35;100.00;94545.91;5067524;28;20215;-73
2022/09/01 04:56:18;;;;;;;39.80;26.10;;;;;;;16.44;100.00;94544.38;5065547;28;20224;-73
2022/09/01 04:58:45;;;;;;;36.47;26.00;;;;;;;16.49;100.00;94547.00;5065847;28;20217;-73
2022/09/01 05:01:17;;;;;;;42.57;26.77;;;;;;;16.57;100.00;94543.91;5066454;28;20220;-73
2022/09/01 05:03:44;;;;;;;41.63;26.83;;;;;;;16.58;100.00;94540.25;5065275;28;20642;-72
2022/09/01 05:06:18;;;;;;;37.17;26.37;;;;;;;16.63;100.00;94548.13;5066510;28;20296;-73
2022/09/01 05:08:48;;;;;;;35.70;23.50;;;;;;;16.63;100.00;94547.34;5068266;28;20205;-73
2022/09/01 05:11:16;;;;;;;28.50;21.03;;;;;;;16.68;100.00;94542.13;5067314;28;20251;-73
2022/09/01 05:13:44;;;;;;;31.47;21.63;;;;;;;16.66;100.00;94541.59;5066356;28;20249;-73
2022/09/01 05:16:15;;;;;;;28.17;20.13;;;;;;;16.67;100.00;94537.91;5067366;28;21218;-75
2022/09/01 05:18:46;;;;;;;26.03;19.17;;;;;;;16.73;100.00;94537.69;5068372;28;20206;-80
2022/09/01 05:21:16;;;;;;;29.50;20.00;;;;;;;16.84;100.00;94536.66;5068385;28;20233;-74
2022/09/01 05:23:45;;;;;;;30.60;20.30;;;;;;;16.87;100.00;94538.75;5069010;28;20262;-75
2022/09/01 05:26:16;;;;;;;28.37;20.37;;;;;;;16.92;100.00;94545.84;5068676;28;20286;-74
2022/09/01 05:28:43;;;;;;;26.63;20.13;;;;;;;16.92;100.00;94535.34;5067556;28;20205;-75
2022/09/01 05:31:11;;;;;;;27.90;19.77;;;;;;;16.98;100.00;94534.31;5066588;28;20213;-77
2022/09/01 05:33:44;;;;;;;23.77;18.47;;;;;;;17.13;100.00;94542.22;5065724;28;20228;-74
2022/09/01 05:36:14;;;;;;;26.47;18.13;;;;;;;17.22;100.00;94538.03;5064042;28;20286;-74
2022/09/01 05:38:42;;;;;;;25.87;19.03;;;;;;;17.31;100.00;94538.31;5064500;28;20647;-75
2022/09/01 05:41:13;;;;;;;26.47;19.47;;;;;;;17.36;100.00;94540.91;5064520;28;20263;-74
2022/09/01 05:43:45;;;;;;;25.07;18.67;;;;;;;17.38;100.00;94531.72;5063451;28;20209;-75
2022/09/01 05:46:15;;;;;;;28.83;19.70;;;;;;;17.39;100.00;94532.53;5063206;28;20284;-74
2022/09/01 05:48:42;;;;;;;25.40;19.30;;;;;;;17.49;100.00;94543.00;5064571;28;20205;-75
2022/09/01 05:51:10;;;;;;;26.63;19.20;;;;;;;17.53;100.00;94541.44;5063652;28;20306;-74
2022/09/01 05:53:37;;;;;;;26.97;18.90;;;;;;;17.56;100.00;94539.13;5063910;28;20205;-75
2022/09/01 05:56:12;;;;;;;27.03;20.63;;;;;;;17.63;100.00;94549.38;5064633;28;20270;-75
2022/09/01 05:58:47;;;;;;;29.77;21.00;;;;;;;17.67;100.00;94553.03;5064003;28;20212;-75
2022/09/01 06:01:20;;;;;;;28.03;19.70;;;;;;;17.66;100.00;94548.06;5064475;28;20236;-75
2022/09/01 06:03:49;;;;;;;31.97;21.70;;;;;;;17.71;100.00;94548.84;5064978;28;20205;-76
2022/09/01 06:06:16;;;;;;;28.70;21.20;;;;;;;17.69;100.00;94537.00;5064700;28;20209;-78
2022/09/01 06:08:44;;;;;;;31.57;23.30;;;;;;;17.78;100.00;94536.19;5064352;28;20205;-75
2022/09/01 06:11:15;;;;;;;31.60;23.03;;;;;;;17.79;100.00;94529.91;5063780;28;20298;-76
2022/09/01 06:13:42;;;;;;;35.80;23.30;;;;;;;17.79;100.00;94534.34;5063242;28;20216;-76
2022/09/01 06:16:10;;;;;;;37.67;24.83;;;;;;;17.85;100.00;94522.78;5064031;28;20244;-77
2022/09/01 06:18:42;;;;;;;38.77;25.90;;;;;;;17.65;100.00;94468.41;5062815;28;20207;-77
2022/09/01 06:21:13;;;;;;;99.00;29.77;;;;;;;18.09;100.00;94529.81;5062395;28;20290;-76
2022/09/01 06:23:41;;;;;;;44.17;26.90;;;;;;;18.20;100.00;94541.13;5062566;28;20219;-75
2022/09/01 06:26:15;;;;;;;44.93;26.73;;;;;;;18.24;100.00;94536.13;5062119;28;20219;-73
2022/09/01 06:28:44;;;;;;;37.03;26.10;;;;;;;18.43;100.00;94529.19;5062738;28;20212;-74
2022/09/01 06:31:11;;;;;;;37.05;25.17;;;;;;;18.42;100.00;94528.41;5055965;28;20246;-73
2022/09/01 06:33:38;;;;;;;37.15;24.40;;;;;;;18.49;100.00;94531.59;5060109;28;20758;-73
2022/09/01 06:36:07;;;;;;;43.47;28.15;;;;;;;18.51;100.00;94516.28;5063116;28;20220;-76
2022/09/01 06:38:37;;;;;;;40.78;27.75;;;;;;;18.60;100.00;94522.56;5064163;28;20216;-76
2022/09/01 06:41:11;;;;;;;41.40;28.48;;;;;;;18.68;100.00;94529.09;5061277;28;20197;-74
2022/09/01 06:43:40;;;;;;;33.70;22.38;;;;;;;18.75;100.00;94528.81;5055180;28;20324;-72
2022/09/01 06:46:09;;;;;;;41.40;27.75;;;;;;;18.85;100.00;94531.38;5060153;28;20292;-72
2022/09/01 06:48:37;;;;;;;41.08;27.95;;;;;;;18.89;100.00;94532.44;5061860;28;20232;-72
2022/09/01 06:51:08;;;;;;;39.45;27.63;;;;;;;18.92;100.00;94534.53;5061256;28;20284;-71
2022/09/01 06:53:38;;;;;;;40.38;27.30;;;;;;;18.92;100.00;94527.41;5065963;28;20205;-83
2022/09/01 06:56:04;;;;;;;45.72;28.80;;;;;;;18.93;100.00;94525.56;5067242;28;20575;-74
2022/09/01 06:58:32;;;;;;;46.80;29.67;;;;;;;18.93;100.00;94528.97;5062755;28;20201;-73
2022/09/01 07:00:59;;;;;;;38.85;27.13;;;;;;;19.02;100.00;94522.06;5064757;28;20216;-78
2022/09/01 07:03:27;;;;;;;44.60;28.88;;;;;;;19.13;100.00;94526.22;5064874;28;20193;-79
2022/09/01 07:05:55;;;;;;;37.05;25.92;;;;;;;19.13;100.00;94534.09;5066685;28;20197;-85
2022/09/01 07:08:23;;;;;;;38.22;27.70;;;;;;;19.11;100.00;94532.81;5068619;28;20275;-84
2022/09/01 07:10:52;;;;;;;39.55;26.50;;;;;;;19.27;100.00;94526.41;5069003;28;20296;-84
2022/09/01 07:13:24;;;;;;;38.80;25.23;;;;;;;19.43;100.00;94524.44;5066565;28;20206;-84
2022/09/01 07:15:52;;;;;;;46.30;29.02;;;;;;;19.33;100.00;94503.44;5068674;28;20249;-84
2022/09/01 07:18:21;;;;;;;44.10;29.73;;;;;;;19.53;100.00;94527.03;5069407;28;20208;-83
2022/09/01 07:20:50;;;;;;;43.15;29.92;;;;;;;19.46;100.00;94514.16;5069090;28;20246;-84
2022/09/01 07:23:18;;;;;;;47.42;30.00;;;;;;;19.52;100.00;94526.22;5067799;28;20225;-84
2022/09/01 07:25:47;;;;;;;42.58;29.17;;;;;;;19.48;100.00;94513.88;5068872;28;20680;-85
2022/09/01 07:28:17;;;;;;;44.05;27.95;;;;;;;19.62;100.00;94533.28;5066080;28;20213;-74
2022/09/01 07:30:48;;;;;;;43.45;29.10;;;;;;;19.72;100.00;94526.06;5063142;28;20284;-74
2022/09/01 07:33:19;;;;;;;53.75;30.13;;;;;;;19.80;100.00;94524.66;5063692;28;20234;-74
2022/09/01 07:35:47;;;;;;;46.70;29.50;;;;;;;19.71;100.00;94526.34;5063227;28;20288;-73
2022/09/01 07:38:18;;;;;;;48.22;31.20;;;;;;;19.70;100.00;94530.81;5062828;28;20205;-75
2022/09/01 07:40:45;;;;;;;42.30;28.77;;;;;;;19.71;100.00;94527.09;5062006;28;20193;-74
2022/09/01 07:43:18;;;;;;;44.03;30.73;;;;;;;19.77;100.00;94519.94;5060102;28;20229;-73
2022/09/01 07:45:48;;;;;;;43.70;29.30;;;;;;;19.82;100.00;94519.91;5059982;28;20685;-74
2022/09/01 07:48:19;;;;;;;48.40;29.10;;;;;;;19.68;100.00;94522.38;5056389;28;20689;-79
2022/09/01 07:50:47;;;;;;;41.05;29.08;;;;;;;19.67;100.00;94522.69;5062550;28;20236;-80
2022/09/01 07:53:17;;;;;;;49.75;29.85;;;;;;;19.74;100.00;94517.84;5064502;28;20201;-79
2022/09/01 07:55:45;;;;;;;43.38;28.13;;;;;;;19.87;100.00;94522.50;5063397;28;20285;-79
2022/09/01 07:58:12;;;;;;;42.97;28.95;;;;;;;20.00;100.00;94527.09;5064863;28;20219;-79
2022/09/01 08:00:43;;;;;;;39.67;27.25;;;;;;;20.07;100.00;94524.13;5070963;28;20201;-79
2022/09/01 08:03:10;;;;;;;40.90;27.60;;;;;;;20.08;100.00;94525.72;5070999;28;20600;-79
2022/09/01 08:05:36;;;;;;;37.47;26.30;;;;;;;20.17;100.00;94522.16;5070516;28;20197;-79
2022/09/01 08:08:04;;;;;;;42.72;28.38;;;;;;;20.25;100.00;94520.81;5070584;28;20204;-79
2022/09/01 08:10:32;;;;;;;39.58;28.63;;;;;;;20.43;100.00;94522.72;5067419;28;20197;-78
2022/09/01 08:12:59;;;;;;;51.13;28.20;;;;;;;20.47;100.00;94531.63;5053055;28;20209;-79
2022/09/01 08:15:26;;;;;;;39.25;25.90;;;;;;;20.53;100.00;94519.94;5069170;28;20229;-78
2022/09/01 08:17:53;;;;;;;35.40;24.17;;;;;;;20.65;100.00;94522.97;5060527;28;20204;-79
2022/09/01 08:20:20;;;;;;;34.88;24.80;;;;;;;20.83;100.00;94522.22;5068887;28;20205;-78
2022/09/01 08:22:47;;;;;;;35.47;24.92;;;;;;;21.03;100.00;94523.78;5070352;28;20217;-79
2022/09/01 08:25:14;;;;;;;48.78;26.73;;;;;;;21.09;100.00;94517.41;5070114;28;20205;-79
2022/09/01 08:27:43;;;;;;;39.03;25.88;;;;;;;21.14;100.00;94521.81;5070697;28;20288;-78
2022/09/01 08:30:12;;;;;;;39.28;25.27;;;;;;;21.18;100.00;94513.00;5069928;28;20643;-78
2022/09/01 08:32:41;;;;;;;33.65;23.65;;;;;;;21.22;100.00;94513.22;5069495;28;20201;-78
2022/09/01 08:35:09;;;;;;;30.27;21.15;;;;;;;21.24;100.00;94508.47;5069999;28;20314;-79
2022/09/01 08:37:36;;;;;;;36.03;24.30;;;;;;;21.32;100.00;94499.88;5070319;28;20209;-78
2022/09/01 08:40:04;;;;;;;32.55;23.92;;;;;;;21.55;100.00;94509.53;5069840;28;20197;-79
2022/09/01 08:42:44;;;;;;;31.50;23.02;;;;;;;21.75;100.00;94509.22;5068772;28;20680;-79
2022/09/01 08:45:20;;;;;;;33.95;23.17;;;;;;;21.90;100.00;94508.19;5068827;28;20278;-78
2022/09/01 08:47:47;;;;;;;27.60;20.92;;;;;;;22.06;98.04;94504.19;5063032;28;20582;-78
2022/09/01 08:50:15;;;;;;;32.00;21.33;;;;;;;22.16;97.59;94501.34;5070324;28;20201;-77
2022/09/01 08:52:45;;;;;;;26.23;19.45;;;;;;;22.22;94.86;94496.75;5070604;28;20193;-78
2022/09/01 08:55:20;;;;;;;27.42;19.33;;;;;;;22.31;95.60;94495.75;5056576;28;20221;-79
2022/09/01 08:57:50;;;;;;;20.92;16.35;;;;;;;22.44;95.40;94492.31;5068794;28;20652;-78
2022/09/01 09:00:23;;;;;;;26.98;18.95;;;;;;;22.55;93.67;94484.94;5067543;28;20223;-78
2022/09/01 09:03:13;;;;;;;26.50;18.52;;;;;;;22.75;93.74;94484.56;5066292;28;20274;-79
2022/09/01 09:05:56;;;;;;;22.10;16.73;;;;;;;22.87;92.64;94484.03;5069431;28;20205;-79
2022/09/01 09:09:03;;;;;;;20.35;16.50;;;;;;;23.03;91.70;94472.78;5069374;28;20193;-79
2022/09/01 09:11:53;;;;;;;22.42;17.10;;;;;;;23.27;91.22;94477.81;5074314;28;20275;-83
2022/09/01 09:14:34;;;;;;;23.98;16.83;;;;;;;23.48;88.08;94488.75;5065117;28;20223;-86
2022/09/01 09:17:03;;;;;;;25.20;16.95;;;;;;;23.60;86.47;94475.72;5073125;28;20209;-78
2022/09/01 09:19:34;;;;;;;20.38;15.55;;;;;;;23.72;86.87;94474.06;5073842;28;20205;-78
2022/09/01 09:22:05;;;;;;;21.58;16.50;;;;;;;23.91;86.14;94475.72;5072125;28;20225;-77
2022/09/01 09:24:47;;;;;;;28.70;17.40;;;;;;;24.06;84.37;94473.47;5072076;28;20205;-78
2022/09/01 09:27:18;;;;;;;21.80;16.38;;;;;;;24.15;83.68;94469.03;5072601;28;20290;-78
2022/09/01 09:29:47;;;;;;;25.80;16.13;;;;;;;24.37;81.89;94464.69;5072069;28;20194;-78
2022/09/01 09:32:15;;;;;;;18.88;14.77;;;;;;;24.48;81.87;94463.31;5072530;28;20271;-78
2022/09/01 09:34:43;;;;;;;22.25;15.38;;;;;;;24.64;81.81;94456.47;5071600;28;20194;-78
2022/09/01 09:37:24;;;;;;;21.85;13.88;;;;;;;24.94;80.73;94460.13;5072140;28;20645;-78
2022/09/01 09:40:13;;;;;;;14.13;9.75;;;;;;;25.24;80.99;94459.19;5070005;28;20258;-76
2022/09/01 09:42:42;;;;;;;15.48;11.43;;;;;;;25.56;78.98;94460.59;5066151;28;20696;-76
2022/09/01 09:45:26;;;;;;;16.92;12.23;;;;;;;25.78;75.98;94450.50;5071991;28;20197;-77
2022/09/01 09:47:57;;;;;;;17.63;11.85;;;;;;;25.99;74.17;94452.50;5071304;28;20215;-76
2022/09/01 09:50:28;;;;;;;18.25;11.50;;;;;;;26.24;72.36;94456.94;5072236;28;20193;-77
2022/09/01 09:53:15;;;;;;;20.33;12.20;;;;;;;26.41;73.92;94457.66;5072069;28;20197;-78
2022/09/01 09:56:04;;;;;;;21.60;11.55;;;;;;;26.52;72.08;94454.63;5053229;28;20202;-77
2022/09/01 09:58:36;;;;;;;23.02;11.63;;;;;;;26.61;71.09;94455.38;5073860;28;20193;-77
2022/09/01 10:01:15;;;;;;;19.48;11.93;;;;;;;26.81;69.63;94460.72;5052521;28;20202;-77
2022/09/01 10:03:48;;;;;;;19.20;12.48;;;;;;;27.07;67.71;94454.44;5057556;28;20241;-78
2022/09/01 10:06:31;;;;;;;17.17;12.00;;;;;;;27.28;66.61;94452.53;5066128;28;20285;-77
2022/09/01 10:08:59;;;;;;;20.50;11.20;;;;;;;27.55;67.70;94444.78;5069391;28;20223;-76
2022/09/01 10:11:30;;;;;;;15.02;10.02;;;;;;;27.86;67.84;94446.19;5071877;28;20223;-76
2022/09/01 10:13:57;;;;;;;27.25;12.52;;;;;;;28.07;65.89;94447.69;5070351;28;20198;-76
2022/09/01 10:16:29;;;;;;;13.07;9.38;;;;;;;28.36;66.91;94446.72;5069970;28;20232;-75
2022/09/01 10:19:00;;;;;;;19.30;11.40;;;;;;;28.49;62.18;94447.47;5070084;28;20288;-77
2022/09/01 10:21:32;;;;;;;17.10;11.02;;;;;;;28.61;62.85;94434.88;5068950;28;20197;-76
2022/09/01 10:24:01;;;;;;;10.43;8.77;;;;;;;28.85;63.09;94436.78;5071173;28;20218;-76
2022/09/01 10:26:34;;;;;;;15.32;11.63;;;;;;;28.96;61.09;94442.41;5070003;28;20270;-76
2022/09/01 10:29:07;;;;;;;12.45;9.55;;;;;;;29.22;62.12;94438.25;5071035;28;20220;-76
2022/09/01 10:31:36;;;;;;;21.45;12.25;;;;;;;29.27;58.56;94434.53;5072013;28;20193;-76
2022/09/01 10:34:08;;;;;;;19.65;11.48;;;;;;;28.95;60.19;94432.81;5070999;28;20196;-76
2022/09/01 10:36:36;;;;;;;13.55;11.10;;;;;;;28.79;61.00;94423.94;5071368;28;20178;-76
2022/09/01 10:39:03;;;;;;;20.13;10.50;;;;;;;29.04;61.70;94425.44;5071399;28;20572;-76
2022/09/01 10:41:50;;;;;;;17.23;10.77;;;;;;;29.41;59.60;94429.56;5071076;28;20657;-76
2022/09/01 10:44:23;;;;;;;20.85;11.00;;;;;;;29.69;59.27;94427.66;5071532;28;20688;-75
2022/09/01 10:46:51;;;;;;;16.20;10.95;;;;;;;29.79;56.55;94426.34;5070910;28;20197;-75
2022/09/01 10:49:50;;;;;;;15.30;10.80;;;;;;;30.01;57.75;94425.03;5070473;28;20203;-76
2022/09/01 10:52:57;;;;;;;21.63;10.65;;;;;;;30.47;57.25;94431.53;5071147;28;20198;-76
2022/09/01 10:55:45;;;;;;;12.77;10.07;;;;;;;30.69;54.54;94431.66;5070079;28;20201;-77
2022/09/01 10:58:42;;;;;;;15.40;10.30;;;;;;;30.60;53.45;94431.06;5068262;28;20667;-77
2022/09/01 11:01:09;;;;;;;17.83;10.68;;;;;;;30.51;52.44;94425.09;5068905;28;20208;-76
2022/09/01 11:03:53;;;;;;;17.27;10.25;;;;;;;30.51;51.50;94419.72;5070592;28;20221;-74
2022/09/01 11:07:03;;;;;;;14.23;10.25;;;;;;;30.36;52.04;94413.22;5065180;28;20208;-72
2022/09/01 11:09:36;;;;;;;17.92;11.23;;;;;;;30.10;52.13;94406.88;5068926;28;20615;-73
2022/09/01 11:12:25;;;;;;;25.30;10.55;;;;;;;29.87;53.94;94395.94;5069400;28;20575;-73
2022/09/01 11:14:55;;;;;;;17.55;10.45;;;;;;;29.79;53.54;94412.97;5064972;28;20316;-72
2022/09/01 11:17:25;;;;;;;14.60;10.18;;;;;;;29.72;54.60;94404.75;5070410;28;20660;-74
2022/09/01 11:19:58;;;;;;;18.70;10.40;;;;;;;29.77;56.71;94399.13;5069541;28;20213;-73
2022/09/01 11:22:32;;;;;;;18.35;11.02;;;;;;;29.84;57.19;94395.88;5069053;28;20681;-73
2022/09/01 11:25:24;;;;;;;18.77;11.80;;;;;;;29.97;56.93;94394.66;5057003;28;20281;-73
2022/09/01 11:28:01;;;;;;;17.13;10.68;;;;;;;30.01;55.46;94400.91;5069793;28;20289;-72
2022/09/01 11:30:50;;;;;;;19.88;11.57;;;;;;;30.00;55.15;94392.06;5069997;28;20197;-73
2022/09/01 11:33:32;;;;;;;17.17;10.65;;;;;;;30.09;56.50;94384.63;5068780;28;20190;-73
2022/09/01 11:36:01;;;;;;;17.15;10.77;;;;;;;29.96;55.88;94372.44;5067611;28;20197;-72
2022/09/01 11:38:33;;;;;;;17.30;10.75;;;;;;;29.83;55.43;94370.97;5069165;28;20205;-73